Time;durP1;ratioP1;P1;durP2;ratioP2;P2;SDS_P1;SDS_P2;PMS_P1;PMS_P2;Temp;Humidity;BMP_temperature;BMP_pressure;BME280_temperature;BME280_humidity;BME280_pressure;Samples;Min_cycle;Max_cycle;Signal;HPM_P1;HPM_P2
2022/07/07 00:00:47;;;;;;;17.23;9.13;;;;;;;18.06;76.63;102036.06;4981185;28;20039;-89
2022/07/07 00:03:12;;;;;;;19.45;9.60;;;;;;;18.05;75.07;102031.72;4973260;28;20022;-88
2022/07/07 00:05:39;;;;;;;15.48;9.25;;;;;;;18.04;75.11;102031.78;4973670;28;20030;-88
2022/07/07 00:08:05;;;;;;;18.83;10.18;;;;;;;18.02;75.05;102028.34;4972128;28;20485;-86
2022/07/07 00:10:30;;;;;;;16.63;9.27;;;;;;;18.02;76.60;102021.31;4970115;28;20019;-89
2022/07/07 00:12:55;;;;;;;14.25;8.55;;;;;;;18.03;74.60;102020.41;4989274;28;20042;-88
2022/07/07 00:15:21;;;;;;;18.65;9.60;;;;;;;18.03;75.58;102025.66;4975148;28;20109;-89
2022/07/07 00:17:46;;;;;;;17.35;9.55;;;;;;;18.04;75.19;102019.50;4993373;28;20374;-89
2022/07/07 00:20:12;;;;;;;17.70;9.32;;;;;;;18.04;75.92;102018.66;4992526;28;20499;-87
2022/07/07 00:22:37;;;;;;;16.45;9.52;;;;;;;18.04;76.68;102006.41;4982406;28;20054;-90
2022/07/07 00:25:04;;;;;;;17.02;10.00;;;;;;;18.02;76.50;102008.22;4974737;28;20030;-89
2022/07/07 00:27:29;;;;;;;18.13;9.63;;;;;;;18.02;75.58;101999.47;4980785;28;20033;-89
2022/07/07 00:29:55;;;;;;;18.20;10.00;;;;;;;18.01;75.57;101985.53;4975087;28;20030;-89
2022/07/07 00:32:20;;;;;;;18.40;10.00;;;;;;;18.02;76.38;101981.09;4973089;28;20331;-88
2022/07/07 00:34:45;;;;;;;18.20;9.98;;;;;;;17.99;75.50;101982.09;4972672;28;20042;-88
2022/07/07 00:37:10;;;;;;;16.70;9.57;;;;;;;18.00;75.67;101980.34;4970738;28;20396;-87
2022/07/07 00:39:36;;;;;;;17.63;9.38;;;;;;;17.99;75.60;101979.47;4970337;28;20293;-86
2022/07/07 00:42:01;;;;;;;17.83;9.87;;;;;;;17.99;75.96;101979.47;4987440;28;20501;-88
2022/07/07 00:44:26;;;;;;;17.45;9.45;;;;;;;18.00;75.88;101977.72;4974721;28;20277;-89
2022/07/07 00:46:54;;;;;;;17.30;9.53;;;;;;;17.99;75.92;101976.84;4985315;28;20018;-88
2022/07/07 00:49:20;;;;;;;17.02;9.77;;;;;;;17.99;75.77;101974.22;4972618;28;20285;-88
2022/07/07 00:51:45;;;;;;;16.52;9.40;;;;;;;17.98;75.71;101959.38;4979815;28;20034;-88
2022/07/07 00:54:12;;;;;;;15.43;9.57;;;;;;;18.00;76.31;101964.59;4972716;28;20182;-89
2022/07/07 00:56:38;;;;;;;14.57;9.18;;;;;;;18.00;76.05;101967.22;4971856;28;20050;-89
2022/07/07 00:59:07;;;;;;;14.38;9.15;;;;;;;17.99;75.88;101953.22;4963704;28;20397;-87
2022/07/07 01:01:38;;;;;;;14.35;9.50;;;;;;;17.98;76.00;101962.00;4964918;28;20024;-88
2022/07/07 01:04:07;;;;;;;15.50;9.13;;;;;;;17.99;75.92;101955.00;4972142;28;20026;-88
2022/07/07 01:06:33;;;;;;;13.77;9.05;;;;;;;17.98;76.07;101962.00;4964454;28;20031;-88
2022/07/07 01:08:59;;;;;;;14.60;8.65;;;;;;;17.98;76.92;101959.38;4965022;28;20557;-88
2022/07/07 01:11:24;;;;;;;17.13;8.68;;;;;;;17.98;76.33;101958.53;4979600;28;20098;-89
2022/07/07 01:13:49;;;;;;;18.83;9.17;;;;;;;17.96;76.34;101955.97;4972282;28;20101;-88
2022/07/07 01:16:15;;;;;;;15.82;8.95;;;;;;;17.98;76.57;101955.91;4976050;28;20297;-88
2022/07/07 01:18:41;;;;;;;14.60;8.57;;;;;;;17.97;76.61;101967.31;4970913;28;20158;-87
2022/07/07 01:21:11;;;;;;;13.70;8.98;;;;;;;17.96;76.85;101966.44;4973092;28;20294;-89
2022/07/07 01:23:36;;;;;;;14.57;9.15;;;;;;;17.96;76.29;101950.72;4970736;28;20038;-88
2022/07/07 01:26:01;;;;;;;16.67;8.50;;;;;;;17.97;77.22;101956.81;4957497;28;20030;-88
2022/07/07 01:28:27;;;;;;;13.25;8.52;;;;;;;17.97;76.91;101952.44;4991376;28;20106;-88
2022/07/07 01:30:52;;;;;;;17.33;9.57;;;;;;;17.96;77.88;101953.34;4973714;28;20010;-89
2022/07/07 01:33:18;;;;;;;15.65;9.35;;;;;;;17.94;77.18;101943.81;4972653;28;20297;-88
2022/07/07 01:35:43;;;;;;;16.98;9.10;;;;;;;17.94;77.32;101941.22;4970222;28;20131;-88
2022/07/07 01:38:08;;;;;;;17.77;8.63;;;;;;;17.94;77.04;101936.81;4970425;28;20041;-88
2022/07/07 01:40:34;;;;;;;17.50;9.38;;;;;;;17.92;77.24;101930.75;4971211;28;20634;-89
2022/07/07 01:42:59;;;;;;;16.35;9.45;;;;;;;17.91;77.47;101929.03;4982122;28;20405;-88
2022/07/07 01:45:24;;;;;;;15.50;8.90;;;;;;;17.96;78.01;101932.34;4980137;28;20034;-89
2022/07/07 01:47:49;;;;;;;17.17;9.10;;;;;;;17.93;77.71;101924.59;4969528;28;20312;-87
2022/07/07 01:50:15;;;;;;;17.92;8.95;;;;;;;17.94;78.04;101923.69;4970479;28;20317;-87
2022/07/07 01:52:40;;;;;;;17.02;9.07;;;;;;;17.93;77.43;101921.13;4972094;28;20105;-88
2022/07/07 01:55:06;;;;;;;14.35;9.07;;;;;;;17.93;77.53;101921.13;4971808;28;20030;-88
2022/07/07 01:57:31;;;;;;;16.00;9.25;;;;;;;17.91;77.98;101925.56;4969884;28;20010;-89
2022/07/07 01:59:57;;;;;;;16.20;9.50;;;;;;;17.91;78.21;101928.19;4967252;28;20030;-88
2022/07/07 02:02:22;;;;;;;15.00;9.18;;;;;;;17.90;78.02;101929.94;4969554;28;20657;-88
2022/07/07 02:04:48;;;;;;;15.20;9.00;;;;;;;17.89;77.96;101925.63;4968163;28;20500;-89
2022/07/07 02:07:13;;;;;;;17.67;9.37;;;;;;;17.91;78.16;101925.56;4970634;28;20026;-88
2022/07/07 02:09:38;;;;;;;16.85;8.68;;;;;;;17.92;78.17;101924.66;4971620;28;20333;-86
2022/07/07 02:12:04;;;;;;;16.40;8.95;;;;;;;17.90;78.54;101922.09;4970610;28;20102;-89
2022/07/07 02:14:29;;;;;;;15.90;8.27;;;;;;;17.93;78.63;101921.13;4971007;28;20030;-88
2022/07/07 02:16:55;;;;;;;18.20;8.90;;;;;;;17.92;78.63;101920.25;4970538;28;20037;-88
2022/07/07 02:19:20;;;;;;;14.35;8.35;;;;;;;17.91;79.69;101915.06;4958809;28;20037;-89
2022/07/07 02:21:46;;;;;;;12.90;7.30;;;;;;;17.94;79.81;101914.97;4977105;28;20049;-88
2022/07/07 02:24:11;;;;;;;12.77;7.70;;;;;;;17.93;79.84;101915.88;4990882;28;20409;-89
2022/07/07 02:26:36;;;;;;;13.93;8.10;;;;;;;17.92;79.09;101919.41;4990767;28;20434;-88
2022/07/07 02:29:03;;;;;;;16.20;7.55;;;;;;;17.94;79.24;101922.84;4988920;28;20034;-89
2022/07/07 02:31:28;;;;;;;12.25;6.88;;;;;;;17.93;79.25;101919.34;4985760;28;20084;-89
2022/07/07 02:33:54;;;;;;;12.23;7.45;;;;;;;17.94;79.26;101912.34;4983473;28;20106;-88
2022/07/07 02:36:19;;;;;;;14.52;8.10;;;;;;;17.94;79.42;101909.72;4993728;28;20137;-88
2022/07/07 02:38:45;;;;;;;14.50;7.55;;;;;;;17.95;79.32;101906.16;4977329;28;20038;-89
2022/07/07 02:41:11;;;;;;;11.55;7.28;;;;;;;17.95;79.30;101903.53;4981874;28;20245;-89
2022/07/07 02:43:37;;;;;;;16.20;7.20;;;;;;;17.95;79.49;101911.41;4986716;28;20234;-88
2022/07/07 02:46:03;;;;;;;13.60;7.40;;;;;;;17.93;79.55;101915.88;4985545;28;20033;-87
2022/07/07 02:48:29;;;;;;;14.88;7.22;;;;;;;17.94;79.69;101921.06;4983463;28;20039;-88
2022/07/07 02:50:54;;;;;;;11.65;7.13;;;;;;;17.97;80.59;101915.69;4988848;28;20510;-88
2022/07/07 02:53:21;;;;;;;15.57;6.88;;;;;;;17.97;80.62;101920.94;4989021;28;20041;-87
2022/07/07 02:55:47;;;;;;;13.13;6.68;;;;;;;17.96;81.46;101919.22;4989161;28;20018;-88
2022/07/07 02:58:19;;;;;;;11.68;6.32;;;;;;;17.94;83.00;101921.06;4990320;28;20030;-87
2022/07/07 03:00:45;;;;;;;12.75;5.90;;;;;;;17.90;84.24;101919.47;4970551;28;20469;-87
2022/07/07 03:03:10;;;;;;;9.00;4.80;;;;;;;17.85;82.72;101920.53;4988718;28;20034;-89
2022/07/07 03:05:36;;;;;;;9.77;5.40;;;;;;;17.77;83.33;101920.81;4992978;28;20030;-88
2022/07/07 03:08:01;;;;;;;7.75;4.35;;;;;;;17.71;83.00;101921.03;4989963;28;20041;-89
2022/07/07 03:10:27;;;;;;;6.97;4.20;;;;;;;17.67;84.38;101919.47;4987195;28;20027;-88
2022/07/07 03:12:53;;;;;;;7.82;3.88;;;;;;;17.65;81.97;101924.75;4973965;28;20037;-89
2022/07/07 03:15:19;;;;;;;5.60;3.47;;;;;;;17.59;81.61;101916.22;4987923;28;20030;-89
2022/07/07 03:17:45;;;;;;;8.05;3.47;;;;;;;17.56;82.90;101925.03;4988362;28;20022;-88
2022/07/07 03:20:13;;;;;;;4.50;3.03;;;;;;;17.49;81.34;101925.28;4987123;28;20058;-88
2022/07/07 03:22:39;;;;;;;5.53;3.25;;;;;;;17.45;82.70;101921.94;4988695;28;20054;-89
2022/07/07 03:25:06;;;;;;;4.05;3.10;;;;;;;17.42;82.45;101926.41;4989196;28;20040;-88
2022/07/07 03:27:32;;;;;;;5.93;3.60;;;;;;;17.37;83.45;101927.44;4988989;28;20113;-88
2022/07/07 03:29:57;;;;;;;6.18;3.88;;;;;;;17.34;84.74;101929.31;4979091;28;20111;-87
2022/07/07 03:32:23;;;;;;;7.45;3.80;;;;;;;17.26;84.68;101929.56;4993215;28;20026;-88
2022/07/07 03:34:48;;;;;;;5.70;3.83;;;;;;;17.20;85.76;101934.16;4991298;28;20030;-88
2022/07/07 03:37:13;;;;;;;7.00;3.53;;;;;;;17.15;85.71;101926.47;4991796;28;20416;-88
2022/07/07 03:39:39;;;;;;;5.68;3.92;;;;;;;17.11;85.86;101921.38;4993128;28;20336;-88
2022/07/07 03:42:04;;;;;;;6.33;4.17;;;;;;;17.06;87.17;101929.38;4974508;28;20411;-88
2022/07/07 03:44:29;;;;;;;7.70;4.00;;;;;;;17.04;86.14;101930.34;4993040;28;20265;-88
2022/07/07 03:46:55;;;;;;;7.17;4.13;;;;;;;16.99;87.00;101927.88;4988837;28;20370;-88
2022/07/07 03:49:20;;;;;;;6.85;3.78;;;;;;;16.98;86.36;101921.78;4989155;28;20285;-88
2022/07/07 03:51:45;;;;;;;6.90;3.63;;;;;;;16.96;87.22;101923.59;4993071;28;20077;-89
2022/07/07 03:54:12;;;;;;;7.37;4.03;;;;;;;16.94;87.17;101919.31;4992904;28;20281;-89
2022/07/07 03:56:38;;;;;;;5.40;3.90;;;;;;;16.94;87.08;101921.94;4957719;28;20353;-88
2022/07/07 03:59:03;;;;;;;7.07;3.90;;;;;;;16.90;87.89;101921.19;4987198;28;20018;-88
2022/07/07 04:01:28;;;;;;;6.50;3.83;;;;;;;16.92;87.76;101921.16;4988468;28;20485;-89
2022/07/07 04:03:54;;;;;;;6.40;3.85;;;;;;;16.90;87.50;101925.56;4996204;28;20507;-89
2022/07/07 04:06:19;;;;;;;10.13;3.70;;;;;;;16.89;86.78;101919.47;4994874;28;20058;-88
2022/07/07 04:08:44;;;;;;;7.13;3.72;;;;;;;16.89;86.84;101919.47;4992980;28;20274;-89
2022/07/07 04:11:10;;;;;;;7.05;3.88;;;;;;;16.89;88.18;101908.13;4972893;28;20022;-88
2022/07/07 04:13:35;;;;;;;7.47;3.63;;;;;;;16.86;87.51;101902.97;4990532;28;20026;-88
2022/07/07 04:16:00;;;;;;;10.20;4.03;;;;;;;16.87;88.03;101909.94;4989280;28;20356;-88
2022/07/07 04:18:26;;;;;;;5.25;3.83;;;;;;;16.87;88.91;101894.22;4979052;28;20072;-89
2022/07/07 04:20:52;;;;;;;9.27;3.95;;;;;;;16.87;88.37;101895.09;4995154;28;20225;-88
2022/07/07 04:23:17;;;;;;;6.13;3.90;;;;;;;16.87;88.80;101902.09;4992947;28;20046;-88
2022/07/07 04:25:42;;;;;;;6.57;4.00;;;;;;;16.86;88.28;101906.47;4976227;28;20484;-88
2022/07/07 04:28:08;;;;;;;7.13;3.97;;;;;;;16.86;88.86;101895.97;4990479;28;20117;-89
2022/07/07 04:30:33;;;;;;;7.40;3.95;;;;;;;16.87;89.19;101904.69;4990528;28;20040;-89
2022/07/07 04:32:59;;;;;;;6.50;4.90;;;;;;;16.86;88.49;101906.47;5001151;28;20052;-89
2022/07/07 04:35:25;;;;;;;7.43;4.97;;;;;;;16.82;88.88;101904.00;4999292;28;20026;-89
2022/07/07 04:37:50;;;;;;;6.57;4.60;;;;;;;16.84;88.96;101917.91;4985589;28;20129;-89
2022/07/07 04:40:15;;;;;;;8.07;4.65;;;;;;;16.82;90.38;101924.94;4993404;28;20126;-89
2022/07/07 04:42:41;;;;;;;11.02;5.20;;;;;;;16.78;91.17;101924.22;4989182;28;20124;-90
2022/07/07 04:45:07;;;;;;;9.67;5.00;;;;;;;16.73;93.04;101936.56;4972581;28;20408;-88
2022/07/07 04:47:38;;;;;;;6.97;4.80;;;;;;;16.61;93.57;101938.72;4992023;28;20274;-90
2022/07/07 04:50:04;;;;;;;8.73;5.25;;;;;;;16.51;93.48;101935.50;4990354;28;20041;-90
2022/07/07 04:52:29;;;;;;;8.25;5.40;;;;;;;16.46;94.95;101935.63;4991188;28;20038;-90
2022/07/07 04:54:56;;;;;;;7.73;5.30;;;;;;;16.44;95.65;101937.47;4991015;28;20035;-89
2022/07/07 04:57:21;;;;;;;7.47;4.35;;;;;;;16.41;95.76;101927.06;4991542;28;20687;-89
2022/07/07 04:59:46;;;;;;;6.00;4.20;;;;;;;16.46;96.36;101935.63;4988037;28;20564;-88
2022/07/07 05:02:12;;;;;;;8.10;4.30;;;;;;;16.46;96.09;101946.09;4988418;28;20286;-89
2022/07/07 05:04:37;;;;;;;6.57;3.97;;;;;;;16.48;94.70;101944.31;4989400;28;20321;-89
2022/07/07 05:07:03;;;;;;;7.78;3.97;;;;;;;16.51;95.30;101946.81;4974211;28;20294;-90
2022/07/07 05:09:28;;;;;;;5.85;3.85;;;;;;;16.53;95.06;101949.41;4972058;28;20027;-89
2022/07/07 05:11:53;;;;;;;7.00;3.47;;;;;;;16.52;94.90;101951.16;4975107;28;20050;-89
2022/07/07 05:14:19;;;;;;;7.15;3.10;;;;;;;16.56;95.53;101963.25;4987156;28;20143;-89
2022/07/07 05:16:44;;;;;;;6.30;2.97;;;;;;;16.56;94.28;101960.66;4991622;28;20050;-90
2022/07/07 05:19:09;;;;;;;20.02;7.93;;;;;;;16.52;94.93;101959.00;4985584;28;20274;-89
2022/07/07 05:21:35;;;;;;;6.97;3.00;;;;;;;16.54;95.57;101965.06;4963107;28;20113;-89
2022/07/07 05:24:00;;;;;;;6.05;2.92;;;;;;;16.54;95.04;101966.81;4984881;28;20285;-89
2022/07/07 05:26:25;;;;;;;6.40;2.40;;;;;;;16.57;94.98;101975.44;4990871;28;20031;-89
2022/07/07 05:28:50;;;;;;;5.43;2.38;;;;;;;16.57;93.97;101971.97;4982023;28;20042;-90
2022/07/07 05:31:16;;;;;;;5.40;2.43;;;;;;;16.63;94.68;101968.34;4991081;28;20026;-90
2022/07/07 05:33:42;;;;;;;8.53;2.73;;;;;;;16.69;93.52;101970.75;4967873;28;20327;-89
2022/07/07 05:36:08;;;;;;;4.97;2.30;;;;;;;16.74;93.59;101974.94;4987012;28;20305;-90
2022/07/07 05:38:33;;;;;;;6.03;2.30;;;;;;;16.84;92.94;101980.75;4976596;28;20034;-90
2022/07/07 05:40:59;;;;;;;7.95;3.00;;;;;;;16.85;93.31;101977.25;4988774;28;20033;-90
2022/07/07 05:43:24;;;;;;;5.95;2.35;;;;;;;16.89;92.75;101989.31;4989489;28;20038;-90
2022/07/07 05:45:50;;;;;;;6.75;2.50;;;;;;;16.97;93.63;101989.94;4973480;28;20054;-89
2022/07/07 05:48:15;;;;;;;7.03;2.40;;;;;;;17.03;93.23;101999.38;4985911;28;20026;-89
2022/07/07 05:50:40;;;;;;;6.28;2.40;;;;;;;17.00;92.75;102005.56;4977665;28;20041;-90
2022/07/07 05:53:06;;;;;;;8.82;2.30;;;;;;;16.96;92.60;102012.66;4985118;28;20117;-89
2022/07/07 05:55:32;;;;;;;5.63;2.40;;;;;;;16.92;91.73;102010.19;4989820;28;20040;-90
2022/07/07 05:57:58;;;;;;;5.93;2.30;;;;;;;16.84;91.96;102015.69;4987947;28;20405;-79
2022/07/07 06:00:24;;;;;;;6.53;2.20;;;;;;;16.72;91.27;102009.97;4972821;28;20034;-79
2022/07/07 06:02:50;;;;;;;7.63;2.08;;;;;;;16.61;90.44;102022.50;4991207;28;20105;-79
2022/07/07 06:05:16;;;;;;;8.07;2.38;;;;;;;16.52;91.97;102021.81;4970999;28;20501;-79
2022/07/07 06:07:41;;;;;;;7.63;2.20;;;;;;;16.39;90.24;102022.22;4993768;28;20026;-79
2022/07/07 06:10:07;;;;;;;7.47;2.42;;;;;;;16.38;91.34;102023.13;4986651;28;20038;-79
2022/07/07 06:12:33;;;;;;;7.20;2.30;;;;;;;16.46;94.02;102040.34;4986783;28;20024;-79
2022/07/07 06:14:58;;;;;;;11.20;2.45;;;;;;;16.54;93.18;102040.13;4985598;28;20047;-79
2022/07/07 06:17:25;;;;;;;9.65;2.38;;;;;;;16.56;92.31;102039.19;4972854;28;20034;-79
2022/07/07 06:19:50;;;;;;;7.93;2.38;;;;;;;16.59;93.94;102048.69;4986289;28;20493;-79
2022/07/07 06:22:16;;;;;;;5.90;1.88;;;;;;;16.68;92.86;102043.22;4988867;28;20050;-79
2022/07/07 06:24:41;;;;;;;10.05;2.28;;;;;;;16.73;91.81;102056.16;4988441;28;20025;-79
2022/07/07 06:27:07;;;;;;;9.93;2.30;;;;;;;16.83;91.40;102065.47;4964983;28;20034;-79
2022/07/07 06:29:32;;;;;;;12.98;2.10;;;;;;;16.96;92.58;102077.28;4972868;28;20030;-90
2022/07/07 06:31:57;;;;;;;10.15;2.28;;;;;;;17.06;92.42;102070.84;4988652;28;20033;-87
2022/07/07 06:34:23;;;;;;;11.27;1.77;;;;;;;17.13;91.12;102074.13;4973068;28;20031;-89
2022/07/07 06:36:48;;;;;;;7.97;1.60;;;;;;;17.10;87.58;102077.72;4992118;28;20331;-90
2022/07/07 06:39:13;;;;;;;16.97;1.87;;;;;;;17.20;90.46;102076.53;5004521;28;20053;-89
2022/07/07 06:41:39;;;;;;;10.38;1.90;;;;;;;17.22;89.18;102066.84;4986452;28;20388;-90
2022/07/07 06:44:06;;;;;;;10.75;1.85;;;;;;;17.33;87.16;102084.88;4984639;28;20030;-90
2022/07/07 06:46:31;;;;;;;10.52;1.85;;;;;;;17.46;88.27;102090.59;4988386;28;20038;-90
2022/07/07 06:48:58;;;;;;;13.13;2.13;;;;;;;17.46;85.52;102093.19;4970064;28;20392;-90
2022/07/07 06:51:23;;;;;;;11.10;2.38;;;;;;;17.43;86.65;102102.00;4997670;28;20025;-89
2022/07/07 06:53:48;;;;;;;8.60;1.90;;;;;;;17.38;85.05;102093.44;4987371;28;20088;-90
2022/07/07 06:56:14;;;;;;;7.88;1.60;;;;;;;17.35;85.74;102102.25;4984544;28;20456;-90
2022/07/07 06:58:39;;;;;;;6.70;1.30;;;;;;;17.32;85.83;102107.59;4990672;28;20042;-90
2022/07/07 07:01:04;;;;;;;6.40;1.30;;;;;;;17.25;84.79;102092.97;4987281;28;20110;-90
2022/07/07 07:03:30;;;;;;;5.57;1.13;;;;;;;17.16;81.78;102101.13;4990938;28;20303;-90
2022/07/07 07:05:55;;;;;;;5.97;1.30;;;;;;;17.11;82.05;102094.31;4995364;28;20026;-89
2022/07/07 07:08:21;;;;;;;6.25;1.20;;;;;;;17.06;82.59;102104.91;4993965;28;20034;-90
2022/07/07 07:10:46;;;;;;;6.43;1.20;;;;;;;17.10;84.92;102111.78;4974566;28;20026;-90
2022/07/07 07:13:11;;;;;;;6.78;1.30;;;;;;;17.13;81.81;102113.44;4990740;28;20034;-90
2022/07/07 07:15:39;;;;;;;7.15;1.20;;;;;;;16.99;80.34;102108.63;4988854;28;20037;-90
2022/07/07 07:18:05;;;;;;;6.63;1.70;;;;;;;16.92;83.13;102117.59;4986593;28;20061;-90
2022/07/07 07:20:30;;;;;;;6.28;1.70;;;;;;;16.90;83.49;102111.53;4995570;28;20022;-89
2022/07/07 07:22:55;;;;;;;6.22;1.60;;;;;;;16.94;84.33;102121.00;4993749;28;20523;-90
2022/07/07 07:25:21;;;;;;;8.23;1.97;;;;;;;17.03;85.16;102120.75;4991743;28;20121;-89
2022/07/07 07:27:46;;;;;;;7.22;1.52;;;;;;;17.17;85.47;102117.69;4973027;28;20285;-90
2022/07/07 07:30:14;;;;;;;10.90;1.90;;;;;;;17.41;87.38;102129.16;4993982;28;20097;-90
2022/07/07 07:32:39;;;;;;;6.38;1.70;;;;;;;17.66;83.80;102123.16;4992177;28;20278;-91
2022/07/07 07:35:05;;;;;;;8.70;1.77;;;;;;;17.81;81.52;102134.88;4994040;28;20025;-90
2022/07/07 07:37:30;;;;;;;5.70;1.38;;;;;;;17.78;82.13;102137.63;4969637;28;20077;-90
2022/07/07 07:39:56;;;;;;;6.63;1.73;;;;;;;17.69;80.06;102146.63;4989377;28;20026;-91
2022/07/07 07:42:21;;;;;;;3.47;1.50;;;;;;;17.59;80.77;102152.22;4992529;28;20113;-90
2022/07/07 07:47:30;;;;;;;7.15;1.77;;;;;;;17.34;84.40;102166.06;4990705;28;20181;-91
2022/07/07 07:49:56;;;;;;;5.73;1.80;;;;;;;17.21;83.25;102150.75;4992625;28;20105;-91
2022/07/07 07:52:21;;;;;;;7.82;2.13;;;;;;;17.19;84.21;102153.44;4979514;28;20296;-91
2022/07/07 07:54:46;;;;;;;9.15;2.50;;;;;;;17.97;88.73;102143.97;4998904;28;20485;-91
2022/07/07 07:57:12;;;;;;;7.47;2.20;;;;;;;18.75;79.39;102147.34;4988737;28;20066;-89
2022/07/07 07:59:37;;;;;;;7.80;2.50;;;;;;;18.89;79.42;102157.34;4997508;28;20331;-78
2022/07/07 08:02:03;;;;;;;8.60;2.33;;;;;;;19.01;78.32;102158.66;5002997;28;20760;-78
2022/07/07 08:04:29;;;;;;;8.00;1.90;;;;;;;19.20;78.09;102152.63;4997526;28;20080;-79
2022/07/07 08:06:54;;;;;;;9.05;1.85;;;;;;;19.16;76.53;102153.69;4989353;28;20034;-79
2022/07/07 08:09:19;;;;;;;6.55;1.58;;;;;;;18.95;76.07;102149.25;4992932;28;20042;-79
2022/07/07 08:11:45;;;;;;;4.35;1.58;;;;;;;18.72;77.64;102147.47;4986360;28;20026;-78
2022/07/07 08:14:10;;;;;;;6.53;1.90;;;;;;;18.49;76.87;102160.56;4987952;28;20413;-79
2022/07/07 08:16:39;;;;;;;7.78;1.67;;;;;;;18.28;77.43;102170.03;4971541;28;20286;-79
2022/07/07 08:19:04;;;;;;;8.63;1.48;;;;;;;18.03;78.17;102179.63;4990838;28;20465;-79
2022/07/07 08:21:29;;;;;;;7.73;1.60;;;;;;;17.76;78.71;102181.38;4996427;28;20093;-78
2022/07/07 08:23:55;;;;;;;7.85;1.52;;;;;;;17.49;80.23;102185.72;4992905;28;20277;-79
2022/07/07 08:26:21;;;;;;;7.22;1.67;;;;;;;17.27;82.55;102184.63;4992571;28;20026;-79
2022/07/07 08:28:46;;;;;;;7.65;1.42;;;;;;;17.23;85.40;102193.50;4991669;28;20038;-90
2022/07/07 08:31:11;;;;;;;3.90;1.40;;;;;;;17.32;84.07;102188.88;4975258;28;20541;-91
2022/07/07 08:33:37;;;;;;;7.35;1.50;;;;;;;17.48;81.87;102186.59;4992810;28;20092;-92
2022/07/07 08:36:03;;;;;;;4.07;1.10;;;;;;;17.54;80.75;102191.66;4995332;28;20125;-88
2022/07/07 08:38:28;;;;;;;4.60;1.40;;;;;;;17.48;80.70;102188.38;4993443;28;20485;-90
2022/07/07 08:40:53;;;;;;;3.67;0.93;;;;;;;17.43;80.04;102187.66;4990785;28;20505;-92
2022/07/07 08:43:19;;;;;;;6.60;1.25;;;;;;;17.44;81.27;102195.47;4989374;28;20297;-91
2022/07/07 08:45:46;;;;;;;6.78;1.30;;;;;;;17.48;82.55;102197.09;4992456;28;20057;-91
2022/07/07 08:48:11;;;;;;;4.13;1.20;;;;;;;17.61;82.25;102197.59;4966971;28;20031;-89
2022/07/07 08:50:38;;;;;;;4.18;1.30;;;;;;;17.70;80.20;102205.19;4982651;28;20037;-90
2022/07/07 08:53:06;;;;;;;4.78;1.27;;;;;;;17.82;78.50;102204.78;4988308;28;20059;-91
2022/07/07 08:55:32;;;;;;;4.13;1.20;;;;;;;17.91;78.17;102199.25;4991573;28;20112;-92
2022/07/07 08:57:59;;;;;;;8.02;1.50;;;;;;;18.43;83.80;102210.63;4979966;28;20197;-91
2022/07/07 09:00:24;;;;;;;6.32;1.80;;;;;;;18.69;76.48;102205.38;4987549;28;20030;-92
2022/07/07 09:02:56;;;;;;;7.53;2.10;;;;;;;18.76;80.97;102209.50;4985874;28;20034;-92
2022/07/07 09:05:21;;;;;;;6.22;1.67;;;;;;;19.16;78.33;102210.66;4987847;28;20038;-92
2022/07/07 09:07:52;;;;;;;4.13;1.35;;;;;;;19.64;74.37;102210.56;4990112;28;20026;-91
2022/07/07 09:10:31;;;;;;;5.88;1.40;;;;;;;19.94;75.37;102208.47;4980471;28;20026;-92
2022/07/07 09:12:57;;;;;;;5.70;1.80;;;;;;;20.23;71.80;102208.13;4975229;28;20394;-92
2022/07/07 09:15:22;;;;;;;5.25;1.60;;;;;;;20.23;73.17;102199.38;4983194;28;20495;-91
2022/07/07 09:17:49;;;;;;;7.75;1.60;;;;;;;19.87;71.25;102210.50;4991785;28;20037;-92
2022/07/07 09:20:14;;;;;;;7.72;1.30;;;;;;;19.53;73.75;102207.50;4991957;28;20026;-92
2022/07/07 09:22:40;;;;;;;4.43;1.30;;;;;;;19.22;74.14;102220.94;4988423;28;20034;-91
2022/07/07 09:25:07;;;;;;;7.38;1.30;;;;;;;18.93;72.66;102229.91;5002675;28;20385;-92
2022/07/07 09:27:32;;;;;;;6.72;2.13;;;;;;;18.68;73.20;102236.94;4973804;28;20445;-91
2022/07/07 09:29:58;;;;;;;7.45;1.58;;;;;;;18.53;75.30;102240.94;4991599;28;20520;-91
2022/07/07 09:32:23;;;;;;;5.40;1.30;;;;;;;18.41;77.05;102246.59;4989244;28;20028;-91
2022/07/07 09:34:48;;;;;;;6.75;1.23;;;;;;;18.23;74.72;102252.44;4990118;28;20026;-92
2022/07/07 09:39:58;;;;;;;5.13;1.40;;;;;;;17.91;77.73;102261.38;4986602;28;20807;-91
2022/07/07 09:42:31;;;;;;;8.60;1.30;;;;;;;17.88;76.18;102254.44;4991232;28;20017;-91
2022/07/07 09:45:02;;;;;;;14.73;1.60;;;;;;;18.01;76.31;102258.41;4991416;28;20370;-91
2022/07/07 09:47:29;;;;;;;8.65;1.38;;;;;;;18.28;76.51;102261.06;4972856;28;20500;-91
2022/07/07 09:50:03;;;;;;;5.93;1.35;;;;;;;18.62;77.80;102266.91;4982105;28;20049;-91
2022/07/07 09:52:29;;;;;;;;;;;;;;;18.93;74.75;102267.53;4988963;28;20022;-91
2022/07/07 09:54:56;;;;;;;3.40;1.10;;;;;;;19.32;74.01;102269.63;4988714;28;19960;-91
2022/07/07 09:57:22;;;;;;;5.65;1.25;;;;;;;19.78;74.62;102260.88;4990937;28;20037;-91
2022/07/07 09:59:47;;;;;;;4.32;1.10;;;;;;;19.98;70.03;102263.56;5001121;28;20026;-91
2022/07/07 10:02:18;;;;;;;5.40;1.20;;;;;;;19.91;67.75;102270.00;4996015;28;20049;-92
2022/07/07 10:04:46;;;;;;;5.00;1.00;;;;;;;19.72;67.67;102277.75;4964229;28;20065;-91
2022/07/07 10:07:13;;;;;;;5.22;1.13;;;;;;;19.51;70.31;102283.84;4988382;28;20494;-92
2022/07/07 10:09:43;;;;;;;4.68;1.10;;;;;;;19.29;71.27;102293.41;4991677;28;20057;-91
2022/07/07 10:12:08;;;;;;;6.55;1.08;;;;;;;19.07;70.55;102300.38;4985169;28;20034;-91
2022/07/07 10:14:35;;;;;;;6.07;1.10;;;;;;;18.91;73.99;102307.91;4991055;28;20061;-90
2022/07/07 10:17:02;;;;;;;2.05;0.95;;;;;;;18.70;72.17;102295.53;4990725;28;20022;-91
2022/07/07 10:19:28;;;;;;;2.78;1.00;;;;;;;18.59;75.21;102311.66;4989754;28;20026;-89
2022/07/07 10:21:58;;;;;;;3.40;1.13;;;;;;;18.67;76.01;102312.25;4986807;28;20046;-90
2022/07/07 10:24:27;;;;;;;3.67;1.30;;;;;;;18.71;76.97;102316.50;4991648;28;20030;-90
2022/07/07 10:26:55;;;;;;;4.60;1.55;;;;;;;18.78;75.55;102317.13;4991792;28;20454;-90
2022/07/07 10:29:44;;;;;;;3.55;1.20;;;;;;;18.98;75.70;102316.44;4958737;28;20058;-91
2022/07/07 10:32:29;;;;;;;7.38;1.60;;;;;;;19.27;74.97;102324.16;4989935;28;20045;-89
2022/07/07 10:34:57;;;;;;;4.07;1.70;;;;;;;19.52;74.12;102322.38;4985413;28;20031;-90
2022/07/07 10:37:24;;;;;;;4.55;2.30;;;;;;;19.82;72.21;102327.41;4987518;28;20022;-90
2022/07/07 10:39:53;;;;;;;4.93;2.15;;;;;;;19.98;70.45;102329.38;4972361;28;20037;-90
2022/07/07 10:42:37;;;;;;;5.15;3.00;;;;;;;19.97;71.76;102326.81;4987939;28;20041;-88
2022/07/07 10:45:03;;;;;;;6.25;2.60;;;;;;;19.66;70.83;102341.13;4988848;28;20042;-89
2022/07/07 10:47:30;;;;;;;4.60;2.40;;;;;;;19.43;71.11;102333.22;4990483;28;20159;-85
2022/07/07 10:49:56;;;;;;;4.97;2.30;;;;;;;19.24;70.64;102333.00;4987928;28;20493;-88
2022/07/07 10:52:28;;;;;;;4.55;2.17;;;;;;;19.13;72.61;102344.81;4988911;28;20037;-89
2022/07/07 10:54:59;;;;;;;4.43;2.25;;;;;;;19.17;74.90;102346.44;4989807;28;20030;-89
2022/07/07 10:57:38;;;;;;;4.95;2.40;;;;;;;19.34;72.71;102349.31;4985971;28;20038;-88
2022/07/07 11:00:27;;;;;;;5.53;2.00;;;;;;;19.76;73.46;102354.81;4989837;28;20033;-91
2022/07/07 11:03:09;;;;;;;8.05;2.03;;;;;;;19.92;72.43;102358.59;4976398;28;20050;-87
2022/07/07 11:05:36;;;;;;;6.05;2.22;;;;;;;20.00;71.31;102360.88;4989978;28;20057;-89
2022/07/07 11:08:06;;;;;;;5.07;2.08;;;;;;;19.99;70.12;102359.19;4989670;28;20085;-88
2022/07/07 11:10:52;;;;;;;7.18;1.77;;;;;;;19.95;71.71;102370.75;4987870;28;20037;-85
2022/07/07 11:13:34;;;;;;;6.50;1.70;;;;;;;19.75;70.64;102370.66;4981429;28;20057;-86
2022/07/07 11:16:21;;;;;;;5.05;1.50;;;;;;;19.52;72.00;102384.63;4989769;28;20022;-86
2022/07/07 11:18:57;;;;;;;4.35;1.50;;;;;;;19.33;73.31;102384.41;4989045;28;20026;-87
2022/07/07 11:21:33;;;;;;;5.97;1.90;;;;;;;19.38;73.04;102389.53;4987946;28;20121;-86
2022/07/07 11:23:59;;;;;;;4.63;1.60;;;;;;;19.63;76.55;102388.63;5002072;28;20026;-86